Airfield :
LOGIN :

Register | Disclaimer

   EN    FR    IT 

 










Legend :    VFR   Marginal VFR   IFR   Intensive IFR   Very Intensive IFR
Visi :
Ceiling :
>= 8 km
>= 3000ft
5 to 8 km
1000 to 3000 ft
1500m to 5 km
500 to 1000 ft
800 to 1500m
200 to 500 ft
< 800m
< 200 ft
Symbols :   Thunderstorms  Fog  Heavy snow  Heavy precipitations  Wind > 20 kt
SIGMETs :     Misc.  Thunderstorms  Icing  Turbulence  Mountain Waves  Volcanic Ashes






- Airport Elevation : 218 ft
- IATA code : LBG


LFPB - Paris / Le Bourget

CURRENT METAR :
  • 301430Z AUTO 36005KT 320V020 9999 OVC012 07/05 Q1024 NOSIG

EXPIRED METARs :
  • 301400Z AUTO 01005KT 330V040 9999 OVC011 07/05 Q1024 NOSIG
  • 301330Z AUTO 36005KT 340V040 9999 OVC013 07/05 Q1023 NOSIG
  • 301300Z AUTO 36007KT 9999 OVC012 07/05 Q1023 NOSIG
  • 301230Z AUTO 36005KT 320V030 9999 BKN010 OVC015 07/05 Q1023 NOSIG
  • 301200Z AUTO 35004KT 310V020 9999 OVC010 07/05 Q1024 NOSIG

TAF TAF LFPB
Valid from the 30 at 12:00 until the 01 at 12:00 UTC


301100Z 3012/0112 03008KT 9999 BKN010
TEMPO 3017/3019 BKN020
PROB40
TEMPO 0103/0109 BKN008
ATIS : +33 1 48 62 43 92



MET'MAP, your aeronautical weather chart ! - Copyright ORBIFLY December 2007 - Disclaimer

ORBIFLY MET'MAP TEAM :

Programming & Development : Alexandra Zaïnal
Original concept : Baudouin d'Aumeries
Technical & hardware support : Manuel Goepfert
Assistance : Marc-Olivier Méhu




SOURCES & CREDITS :

   NOAA